Weather at Kalijati Airport

Public forecast

Using degrees Celsius for public forecast. Weather courtesy of forecast.io.

Closest aviation weather report (METAR) to Kalijati Airport

Report is more than 2 hours old.

Closest report is Halim Perdanakusuma International Airport, 48.5 nm (89.8 km) WNW.

2024/06/13 17:00 (retrieved 4 hours ago)

WIHH 131700Z 05003KT 6000 FEW022 27/25 Q1011 NOSIG METAR WARR 131700Z VRB01KT 9999 FEW020 26/25 Q1011 NOSIG

Closest aviation forecast (TAF) to Kalijati Airport

Closest forecast is Halim Perdanakusuma International Airport, 48.5 nm (89.8 km) WNW.

2024/06/13 18:00 (retrieved 3 hours ago)

TAF WIHH 131700Z 1318/1418 09005KT 6000 FEW020 BECMG 1323/1401 4000 HZ TEMPO 1405/1408 30012KT 3000 -RA FEW017CB SCT018